Time;durP1;ratioP1;P1;durP2;ratioP2;P2;SDS_P1;SDS_P2;PMS_P1;PMS_P2;Temp;Humidity;BMP_temperature;BMP_pressure;BME280_temperature;BME280_humidity;BME280_pressure;Samples;Min_cycle;Max_cycle;Signal;HPM_P1;HPM_P2
2023/03/04 00:02:00;;;;;;;72.20;44.30;;;1.60;99.90;;;;;;5031027;28;20401;-83
2023/03/04 00:04:26;;;;;;;70.10;42.47;;;1.70;99.90;;;;;;5032838;28;20815;-82
2023/03/04 00:06:52;;;;;;;61.80;39.00;;;2.00;99.90;;;;;;5032461;28;20424;-83
2023/03/04 00:09:18;;;;;;;64.40;39.70;;;2.00;99.90;;;;;;5033100;28;20446;-82
2023/03/04 00:11:43;;;;;;;62.77;38.93;;;2.10;99.90;;;;;;5034128;28;20856;-83
2023/03/04 00:14:09;;;;;;;60.20;38.57;;;2.10;99.90;;;;;;5033272;28;20464;-82
2023/03/04 00:16:35;;;;;;;64.20;38.47;;;2.10;99.90;;;;;;5034259;28;20409;-82
2023/03/04 00:19:01;;;;;;;64.47;37.20;;;2.20;99.90;;;;;;5035760;28;20397;-82
2023/03/04 00:21:26;;;;;;;57.92;35.65;;;2.30;99.90;;;;;;5037122;28;20377;-83
2023/03/04 00:23:52;;;;;;;53.42;33.65;;;2.30;99.90;;;;;;5035225;28;20904;-83
2023/03/04 00:26:18;;;;;;;53.45;33.15;;;2.40;99.90;;;;;;5038220;28;20952;-82
2023/03/04 00:28:47;;;;;;;53.22;32.53;;;2.40;99.90;;;;;;5035196;28;20417;-82
2023/03/04 00:31:13;;;;;;;50.55;29.52;;;2.40;99.90;;;;;;5034639;28;20413;-82
2023/03/04 00:33:39;;;;;;;50.80;29.92;;;2.60;99.90;;;;;;5034271;28;20390;-81
2023/03/04 00:36:05;;;;;;;49.28;28.02;;;2.50;99.90;;;;;;5035013;28;20405;-83
2023/03/04 00:38:31;;;;;;;48.35;27.73;;;2.60;99.90;;;;;;5035088;28;20393;-81
2023/03/04 00:40:56;;;;;;;43.83;26.40;;;2.80;99.90;;;;;;5033110;28;20772;-83
2023/03/04 00:43:23;;;;;;;44.10;26.07;;;2.70;99.90;;;;;;5031941;28;20934;-81
2023/03/04 00:45:49;;;;;;;47.08;26.30;;;2.80;99.90;;;;;;5033871;28;20864;-82
2023/03/04 00:48:16;;;;;;;43.80;24.57;;;2.80;99.90;;;;;;5033756;28;20465;-83
2023/03/04 00:50:42;;;;;;;43.20;24.67;;;2.80;99.90;;;;;;5016638;28;20383;-83
2023/03/04 00:53:09;;;;;;;39.83;25.13;;;2.80;99.90;;;;;;5009434;28;20383;-83
2023/03/04 00:55:35;;;;;;;44.00;24.10;;;2.80;99.90;;;;;;5011749;28;20390;-81
2023/03/04 00:58:01;;;;;;;45.78;24.98;;;2.90;99.90;;;;;;5010452;28;20426;-82
2023/03/04 01:00:27;;;;;;;39.55;23.58;;;3.00;99.90;;;;;;5016019;28;20981;-82
2023/03/04 01:02:53;;;;;;;40.80;23.15;;;2.80;99.90;;;;;;5025648;28;20498;-83
2023/03/04 01:05:19;;;;;;;40.35;22.35;;;2.90;99.90;;;;;;5026099;28;20441;-82
2023/03/04 01:07:45;;;;;;;43.72;21.95;;;2.90;99.90;;;;;;5015705;28;20398;-82
2023/03/04 01:10:13;;;;;;;38.53;21.27;;;3.00;99.90;;;;;;5033142;28;20381;-81
2023/03/04 01:12:40;;;;;;;38.17;21.20;;;3.10;99.90;;;;;;5034678;28;20393;-82
2023/03/04 01:15:10;;;;;;;38.28;20.67;;;3.10;99.90;;;;;;5030981;28;20472;-82
2023/03/04 01:17:36;;;;;;;39.55;20.63;;;3.00;99.90;;;;;;5032985;28;20406;-82
2023/03/04 01:20:02;;;;;;;39.47;19.90;;;3.10;99.90;;;;;;5032580;28;20985;-81
2023/03/04 01:22:28;;;;;;;37.15;19.35;;;3.10;99.90;;;;;;5018897;28;20801;-82
2023/03/04 01:24:53;;;;;;;38.25;17.95;;;3.00;99.90;;;;;;5015408;28;20434;-84
2023/03/04 01:27:19;;;;;;;33.73;17.97;;;3.10;99.90;;;;;;5014763;28;20872;-81
2023/03/04 01:29:45;;;;;;;29.27;17.10;;;3.20;99.90;;;;;;5023885;28;20385;-82
2023/03/04 01:32:10;;;;;;;31.60;16.70;;;3.20;99.90;;;;;;5020348;28;20395;-82
2023/03/04 01:34:36;;;;;;;34.22;16.58;;;3.20;99.90;;;;;;5022498;28;20953;-83
2023/03/04 01:37:02;;;;;;;31.85;16.42;;;3.20;99.90;;;;;;5030224;28;20803;-81
2023/03/04 01:39:27;;;;;;;38.58;17.75;;;3.30;99.90;;;;;;5012057;28;20482;-81
2023/03/04 01:41:53;;;;;;;33.20;16.90;;;3.20;99.90;;;;;;5030001;28;20429;-80
2023/03/04 01:44:19;;;;;;;33.33;15.27;;;3.40;99.90;;;;;;5312238;22;20427;-83
2023/03/04 01:46:51;;;;;;;35.17;15.70;;;3.40;99.90;;;;;;5040874;28;20427;-82
2023/03/04 01:49:18;;;;;;;33.63;15.15;;;3.30;99.90;;;;;;5051153;28;20374;-82
2023/03/04 01:51:48;;;;;;;33.53;15.48;;;3.40;99.90;;;;;;5035670;28;20417;-83
2023/03/04 01:54:14;;;;;;;31.10;15.55;;;3.40;99.90;;;;;;5031516;28;20895;-84
2023/03/04 01:56:44;;;;;;;28.20;14.38;;;3.40;99.90;;;;;;5031699;28;20409;-83
2023/03/04 01:59:24;;;;;;;31.70;14.98;;;3.50;99.90;;;;;;5030198;28;20369;-80
2023/03/04 02:01:52;;;;;;;32.33;15.13;;;3.60;99.90;;;;;;5031651;28;20832;-83
2023/03/04 02:04:21;;;;;;;31.58;15.38;;;3.60;99.90;;;;;;5054394;28;20372;-82
2023/03/04 02:06:47;;;;;;;31.52;15.18;;;3.50;99.90;;;;;;5050843;28;20463;-82
2023/03/04 02:09:14;;;;;;;36.47;15.48;;;3.50;99.90;;;;;;5051113;28;20376;-82
2023/03/04 02:11:40;;;;;;;30.20;14.75;;;3.50;99.90;;;;;;5050336;28;21475;-82
2023/03/04 02:14:06;;;;;;;28.20;14.18;;;3.60;99.90;;;;;;5044869;28;20378;-82
2023/03/04 02:16:32;;;;;;;30.75;15.15;;;3.50;99.90;;;;;;5030812;28;20412;-83
2023/03/04 02:18:58;;;;;;;31.48;14.10;;;3.60;99.90;;;;;;5035162;28;20381;-81
2023/03/04 02:21:33;;;;;;;30.70;14.57;;;3.50;99.90;;;;;;5041288;28;20441;-83
2023/03/04 02:24:01;;;;;;;29.03;13.93;;;3.60;99.90;;;;;;5048881;28;20399;-81
2023/03/04 02:26:29;;;;;;;37.55;14.73;;;3.60;99.90;;;;;;5048088;28;20423;-81
2023/03/04 02:28:57;;;;;;;30.65;14.43;;;3.60;99.90;;;;;;5049102;28;20379;-84
2023/03/04 02:31:25;;;;;;;25.60;12.43;;;3.60;99.90;;;;;;5043546;28;20877;-83
2023/03/04 02:33:53;;;;;;;31.27;13.70;;;3.70;99.90;;;;;;5045273;28;20388;-84
2023/03/04 02:36:19;;;;;;;30.88;14.35;;;3.70;99.90;;;;;;5040904;28;20887;-82
2023/03/04 02:38:44;;;;;;;31.65;13.27;;;3.70;99.90;;;;;;5037648;28;20493;-83
2023/03/04 02:41:14;;;;;;;34.47;12.87;;;3.70;99.90;;;;;;5037491;28;20485;-85
2023/03/04 02:43:39;;;;;;;27.15;12.65;;;3.70;99.90;;;;;;5037580;28;20746;-86
2023/03/04 02:46:05;;;;;;;29.50;12.40;;;3.80;99.90;;;;;;5040692;28;20407;-84
2023/03/04 02:48:31;;;;;;;28.70;12.48;;;3.80;99.90;;;;;;5040725;28;20455;-83
2023/03/04 02:50:57;;;;;;;29.25;11.95;;;3.90;99.90;;;;;;5045336;28;20419;-84
2023/03/04 02:53:24;;;;;;;26.42;12.02;;;4.00;99.90;;;;;;5045120;28;20901;-85
2023/03/04 02:55:50;;;;;;;23.92;11.38;;;4.00;99.90;;;;;;5044356;28;20467;-82
2023/03/04 02:58:16;;;;;;;24.17;11.27;;;4.00;99.90;;;;;;5039670;28;20870;-82
2023/03/04 03:00:41;;;;;;;30.98;11.82;;;4.00;99.90;;;;;;5028811;28;20439;-84
2023/03/04 03:03:08;;;;;;;26.45;11.07;;;4.10;99.90;;;;;;5030534;28;20400;-81
2023/03/04 03:05:35;;;;;;;25.33;10.85;;;4.10;99.90;;;;;;5036033;28;20852;-84
2023/03/04 03:08:01;;;;;;;27.47;10.70;;;4.00;99.90;;;;;;5038668;28;20521;-82
2023/03/04 03:10:26;;;;;;;21.73;10.33;;;4.00;99.90;;;;;;5038107;28;20407;-84
2023/03/04 03:12:52;;;;;;;26.67;10.83;;;4.00;99.90;;;;;;5031745;28;20397;-82
2023/03/04 03:15:18;;;;;;;27.07;10.10;;;3.90;99.90;;;;;;5027752;28;20465;-83
2023/03/04 03:17:44;;;;;;;26.77;10.60;;;4.10;99.90;;;;;;5025820;28;20918;-83
2023/03/04 03:20:11;;;;;;;23.73;10.48;;;4.10;99.90;;;;;;5027388;28;20431;-82
2023/03/04 03:22:38;;;;;;;24.38;10.27;;;4.00;99.90;;;;;;5035108;28;20384;-83
2023/03/04 03:25:04;;;;;;;27.30;10.70;;;4.00;99.90;;;;;;5047770;28;20395;-84
2023/03/04 03:27:30;;;;;;;25.42;10.63;;;4.10;99.90;;;;;;5047610;28;20845;-83
2023/03/04 03:29:55;;;;;;;25.45;10.23;;;4.00;99.90;;;;;;5047882;28;20380;-82
2023/03/04 03:32:21;;;;;;;25.13;10.90;;;4.00;99.90;;;;;;5046492;28;20893;-83
2023/03/04 03:34:47;;;;;;;24.37;10.20;;;3.90;99.90;;;;;;5047867;28;21634;-84
2023/03/04 03:37:13;;;;;;;23.08;9.95;;;4.00;99.90;;;;;;5051420;28;20418;-83
2023/03/04 03:39:39;;;;;;;27.95;10.82;;;4.00;99.90;;;;;;5050501;28;20406;-81
2023/03/04 03:42:05;;;;;;;23.50;9.70;;;4.00;99.90;;;;;;5051705;28;20861;-84
2023/03/04 03:44:30;;;;;;;22.67;10.18;;;4.00;99.90;;;;;;5048815;28;20499;-85
2023/03/04 03:46:56;;;;;;;27.43;10.50;;;4.10;99.90;;;;;;5031084;28;20467;-83
2023/03/04 03:49:22;;;;;;;23.65;10.15;;;4.00;99.90;;;;;;5063165;28;20736;-84
2023/03/04 03:51:48;;;;;;;27.97;11.00;;;4.00;99.90;;;;;;5061421;28;20446;-83
2023/03/04 03:54:14;;;;;;;25.52;10.27;;;4.00;99.90;;;;;;5035575;28;20395;-83
2023/03/04 03:56:40;;;;;;;24.35;10.70;;;4.00;99.90;;;;;;5048370;28;20399;-83
2023/03/04 03:59:06;;;;;;;24.30;9.30;;;3.90;99.90;;;;;;5032824;28;21386;-82
2023/03/04 04:01:32;;;;;;;21.13;9.43;;;4.10;99.90;;;;;;5029991;28;20941;-83
2023/03/04 04:03:58;;;;;;;22.38;10.05;;;4.00;99.90;;;;;;5030481;28;20429;-83
2023/03/04 04:06:24;;;;;;;20.58;9.15;;;4.10;99.90;;;;;;5032360;28;20401;-82
2023/03/04 04:08:50;;;;;;;21.40;9.30;;;4.20;99.90;;;;;;5040876;28;21293;-82
2023/03/04 04:11:16;;;;;;;27.75;10.35;;;4.30;99.90;;;;;;5038371;28;20940;-84
2023/03/04 04:13:42;;;;;;;24.08;9.93;;;4.20;99.90;;;;;;5031131;28;20389;-83
2023/03/04 04:16:09;;;;;;;22.35;9.52;;;4.20;99.90;;;;;;5031008;28;20867;-84
2023/03/04 04:18:35;;;;;;;21.83;9.35;;;4.30;99.90;;;;;;5029943;28;20882;-82
2023/03/04 04:21:00;;;;;;;22.70;9.00;;;4.20;99.90;;;;;;5030843;28;20413;-82
2023/03/04 04:23:26;;;;;;;27.52;10.55;;;4.20;99.90;;;;;;5035982;28;20422;-83
2023/03/04 04:25:54;;;;;;;25.83;9.50;;;4.10;99.90;;;;;;5050644;28;20384;-82
2023/03/04 04:28:20;;;;;;;21.52;9.35;;;4.20;99.90;;;;;;5050445;28;20380;-83
2023/03/04 04:30:46;;;;;;;20.35;8.82;;;4.40;99.90;;;;;;5042768;28;20524;-83
2023/03/04 04:33:12;;;;;;;23.77;8.65;;;4.40;99.90;;;;;;5048697;28;20383;-82
2023/03/04 04:35:38;;;;;;;23.88;8.82;;;4.50;99.90;;;;;;5050583;28;20368;-82
2023/03/04 04:38:04;;;;;;;20.93;8.30;;;4.30;99.90;;;;;;5049964;28;20952;-84
2023/03/04 04:40:30;;;;;;;18.27;7.47;;;4.20;99.90;;;;;;5049892;28;20478;-82
2023/03/04 04:42:56;;;;;;;22.47;8.17;;;4.40;99.90;;;;;;5050812;28;20372;-82
2023/03/04 04:45:23;;;;;;;21.50;8.80;;;4.40;99.90;;;;;;5032733;28;20533;-83
2023/03/04 04:47:50;;;;;;;17.75;8.13;;;4.50;99.90;;;;;;5012086;28;20952;-83
2023/03/04 04:50:16;;;;;;;21.42;7.72;;;4.50;99.90;;;;;;5014026;28;20405;-84
2023/03/04 04:52:43;;;;;;;18.15;7.40;;;4.60;99.90;;;;;;5023171;28;20417;-84
2023/03/04 04:55:09;;;;;;;17.80;7.85;;;4.50;99.90;;;;;;5011373;28;20528;-82
2023/03/04 04:57:35;;;;;;;17.52;8.07;;;4.60;99.90;;;;;;5012732;28;20977;-82
2023/03/04 05:00:00;;;;;;;18.65;8.40;;;4.50;99.90;;;;;;5009022;28;20422;-83
2023/03/04 05:02:26;;;;;;;20.88;8.15;;;4.40;99.90;;;;;;5012976;28;20400;-82
2023/03/04 05:04:52;;;;;;;14.75;7.10;;;4.40;99.90;;;;;;5030683;28;20380;-84
2023/03/04 05:07:18;;;;;;;24.15;8.13;;;4.50;99.90;;;;;;5048168;28;20811;-83
2023/03/04 05:09:44;;;;;;;18.97;6.87;;;4.60;99.90;;;;;;5049259;28;20404;-82
2023/03/04 05:12:10;;;;;;;18.63;7.30;;;4.60;99.90;;;;;;5057886;28;20412;-83
2023/03/04 05:14:36;;;;;;;20.48;7.75;;;4.50;99.90;;;;;;5047956;28;22065;-83
2023/03/04 05:17:02;;;;;;;17.77;7.73;;;4.40;99.90;;;;;;5030168;28;20557;-84
2023/03/04 05:19:27;;;;;;;17.20;6.93;;;4.50;99.90;;;;;;5029899;28;20398;-82
2023/03/04 05:21:53;;;;;;;17.58;6.65;;;4.50;99.90;;;;;;5040047;28;20396;-84
2023/03/04 05:24:19;;;;;;;17.00;6.72;;;4.50;99.90;;;;;;5048685;28;20432;-83
2023/03/04 05:26:44;;;;;;;16.90;6.45;;;4.50;99.90;;;;;;5028662;28;20406;-82
2023/03/04 05:29:10;;;;;;;16.17;6.73;;;4.50;99.90;;;;;;5044926;28;20964;-81
2023/03/04 05:31:36;;;;;;;14.10;6.17;;;4.50;99.90;;;;;;5048294;28;20523;-82
2023/03/04 05:34:02;;;;;;;14.65;5.90;;;4.50;99.90;;;;;;5047522;28;20459;-83
2023/03/04 05:36:27;;;;;;;12.60;5.50;;;4.40;99.90;;;;;;5036650;28;20927;-81
2023/03/04 05:38:53;;;;;;;11.20;5.65;;;4.50;99.90;;;;;;5044091;28;20961;-83
2023/03/04 05:41:21;;;;;;;13.87;5.97;;;4.50;99.90;;;;;;5028954;28;20386;-84
2023/03/04 05:43:47;;;;;;;15.43;5.45;;;4.60;99.90;;;;;;5036677;28;20414;-83
2023/03/04 05:46:14;;;;;;;13.45;5.30;;;4.70;99.90;;;;;;5049056;28;20376;-83
2023/03/04 05:48:40;;;;;;;12.68;4.75;;;4.60;99.90;;;;;;5036464;28;20880;-83
2023/03/04 05:51:06;;;;;;;10.77;4.53;;;4.60;99.90;;;;;;5029244;28;20401;-83
2023/03/04 05:53:32;;;;;;;10.00;4.37;;;4.60;99.90;;;;;;5028488;28;20408;-82
2023/03/04 05:55:58;;;;;;;9.33;4.43;;;4.60;99.90;;;;;;5039208;28;20560;-84
2023/03/04 05:58:24;;;;;;;9.50;4.28;;;4.60;99.90;;;;;;5048616;28;20477;-82
2023/03/04 06:00:50;;;;;;;12.98;4.13;;;4.60;99.90;;;;;;5037475;28;20381;-84
2023/03/04 06:03:19;;;;;;;11.33;4.53;;;4.60;99.90;;;;;;5028899;28;20382;-82
2023/03/04 06:05:45;;;;;;;12.00;4.22;;;4.60;99.90;;;;;;5028831;28;20388;-84
2023/03/04 06:08:11;;;;;;;13.10;4.32;;;4.70;99.90;;;;;;5060284;28;20386;-84
2023/03/04 06:10:38;;;;;;;11.93;4.73;;;4.60;99.90;;;;;;5028780;28;20393;-83
2023/03/04 06:13:04;;;;;;;11.75;4.78;;;4.60;99.90;;;;;;5029319;28;20472;-82
2023/03/04 06:15:30;;;;;;;10.13;4.30;;;4.60;99.90;;;;;;5029123;28;20848;-82
2023/03/04 06:17:55;;;;;;;9.97;4.00;;;4.80;99.90;;;;;;5027722;28;20405;-81
2023/03/04 06:20:21;;;;;;;10.47;4.40;;;4.90;99.90;;;;;;5028819;28;20868;-83
2023/03/04 06:22:47;;;;;;;16.35;4.78;;;4.80;99.90;;;;;;5028603;28;20771;-82
2023/03/04 06:25:12;;;;;;;13.82;4.90;;;4.70;99.90;;;;;;5028711;28;20440;-81
2023/03/04 06:27:38;;;;;;;12.95;4.35;;;4.70;99.90;;;;;;5028176;28;20374;-83
2023/03/04 06:30:04;;;;;;;11.50;4.80;;;4.70;99.90;;;;;;5028232;28;20917;-83
2023/03/04 06:32:30;;;;;;;11.88;5.63;;;4.60;99.90;;;;;;5027128;28;20386;-81
2023/03/04 06:34:56;;;;;;;11.93;5.82;;;4.70;99.90;;;;;;5028251;28;20655;-82
2023/03/04 06:37:22;;;;;;;11.95;5.68;;;4.80;99.90;;;;;;5038717;28;20529;-83
2023/03/04 06:39:47;;;;;;;13.68;5.30;;;4.70;99.90;;;;;;5047588;28;20402;-81
2023/03/04 06:42:13;;;;;;;11.33;5.30;;;4.70;99.90;;;;;;5047812;28;20846;-82
2023/03/04 06:44:39;;;;;;;11.93;5.70;;;4.80;99.90;;;;;;5034386;28;20760;-83
2023/03/04 06:47:04;;;;;;;11.02;4.93;;;4.80;99.90;;;;;;5046254;28;20396;-83
2023/03/04 06:49:30;;;;;;;11.98;5.00;;;4.80;99.90;;;;;;5041875;28;20409;-85
2023/03/04 06:51:56;;;;;;;11.95;5.03;;;4.80;99.90;;;;;;5035898;28;20400;-84
2023/03/04 06:54:22;;;;;;;14.55;5.28;;;4.80;99.90;;;;;;5030442;28;20490;-82
2023/03/04 06:56:48;;;;;;;11.85;4.50;;;4.80;99.90;;;;;;5038798;28;20414;-82
2023/03/04 06:59:13;;;;;;;10.40;4.60;;;4.90;99.90;;;;;;5046571;28;20383;-83
2023/03/04 07:01:39;;;;;;;8.17;4.47;;;4.90;99.90;;;;;;5028902;28;20412;-83
2023/03/04 07:04:05;;;;;;;9.93;4.20;;;5.10;99.90;;;;;;5039413;28;20981;-82
2023/03/04 07:06:30;;;;;;;9.30;4.40;;;5.10;99.90;;;;;;5047641;28;20446;-81
2023/03/04 07:08:56;;;;;;;9.15;4.90;;;5.00;99.90;;;;;;5047857;28;20365;-82
2023/03/04 07:11:22;;;;;;;8.63;5.40;;;5.10;99.90;;;;;;5047137;28;20445;-83
2023/03/04 07:13:49;;;;;;;7.47;4.10;;;5.20;99.90;;;;;;5029973;28;20445;-84
2023/03/04 07:16:17;;;;;;;9.68;3.95;;;5.30;99.90;;;;;;5059357;28;20450;-81
2023/03/04 07:18:44;;;;;;;8.20;4.20;;;5.30;99.90;;;;;;5027527;28;20446;-82
2023/03/04 07:21:10;;;;;;;11.70;4.32;;;5.30;99.90;;;;;;5028205;28;20392;-82
2023/03/04 07:23:36;;;;;;;9.05;3.83;;;5.50;99.90;;;;;;5028433;28;20378;-83
2023/03/04 07:26:03;;;;;;;8.15;4.22;;;5.30;99.90;;;;;;5030514;28;20384;-84
2023/03/04 07:28:28;;;;;;;9.38;4.75;;;5.20;99.90;;;;;;5027576;28;20893;-83
2023/03/04 07:30:54;;;;;;;9.55;4.90;;;5.10;99.90;;;;;;5026238;28;20385;-85
2023/03/04 07:33:20;;;;;;;12.38;5.25;;;5.10;99.90;;;;;;5028006;28;20386;-83
2023/03/04 07:35:45;;;;;;;11.77;5.80;;;5.10;99.90;;;;;;5026652;28;20736;-82
2023/03/04 07:38:11;;;;;;;11.53;5.80;;;4.90;99.90;;;;;;5027840;28;20488;-86
2023/03/04 07:40:37;;;;;;;9.38;4.95;;;4.80;99.90;;;;;;5027985;28;20858;-84
2023/03/04 07:43:03;;;;;;;8.73;5.00;;;5.10;99.90;;;;;;5027915;28;20381;-83
2023/03/04 07:45:29;;;;;;;10.13;5.15;;;5.20;99.90;;;;;;5030875;28;20388;-84
2023/03/04 07:47:57;;;;;;;9.38;5.07;;;5.20;99.90;;;;;;5047139;28;20946;-84
2023/03/04 07:50:23;;;;;;;9.90;4.85;;;5.20;99.90;;;;;;5047031;28;20888;-84
2023/03/04 07:52:52;;;;;;;12.95;5.38;;;5.30;99.90;;;;;;5047241;28;20376;-84
2023/03/04 07:55:18;;;;;;;9.10;4.70;;;5.20;99.90;;;;;;5045509;28;20396;-84
2023/03/04 07:57:45;;;;;;;8.25;4.07;;;5.20;99.90;;;;;;5045131;28;20913;-83
2023/03/04 08:00:14;;;;;;;8.55;4.00;;;5.20;99.90;;;;;;5031716;28;20442;-85
2023/03/04 08:02:41;;;;;;;9.88;4.10;;;5.30;99.90;;;;;;5028424;28;20450;-84
2023/03/04 08:05:07;;;;;;;10.90;3.47;;;5.40;99.90;;;;;;5027085;28;20397;-84
2023/03/04 08:07:36;;;;;;;8.77;3.78;;;5.40;99.90;;;;;;5027028;28;20389;-84
2023/03/04 08:10:02;;;;;;;11.83;3.90;;;5.40;99.90;;;;;;5028662;28;20508;-83
2023/03/04 08:12:28;;;;;;;10.57;4.00;;;5.40;99.90;;;;;;5036355;28;20410;-83
2023/03/04 08:14:54;;;;;;;9.43;3.83;;;5.50;99.90;;;;;;5046916;28;21083;-84
2023/03/04 08:17:20;;;;;;;10.35;4.45;;;5.60;99.90;;;;;;5051177;28;20486;-85
2023/03/04 08:19:46;;;;;;;12.35;4.22;;;5.50;99.90;;;;;;5053226;28;20375;-84
2023/03/04 08:22:11;;;;;;;8.82;3.92;;;5.70;99.90;;;;;;5055378;28;20399;-85
2023/03/04 08:24:37;;;;;;;10.25;3.70;;;5.80;99.90;;;;;;5057423;28;20392;-85
2023/03/04 08:27:03;;;;;;;10.40;4.10;;;5.80;99.90;;;;;;5057256;28;20737;-84
2023/03/04 08:29:29;;;;;;;9.97;4.10;;;5.80;99.90;;;;;;5058367;28;20823;-84
2023/03/04 08:31:55;;;;;;;9.63;3.97;;;5.90;99.90;;;;;;5059153;28;20400;-85
2023/03/04 08:34:23;;;;;;;9.33;3.77;;;5.90;99.90;;;;;;5057195;28;20383;-85
2023/03/04 08:36:49;;;;;;;10.60;4.13;;;5.90;99.90;;;;;;5057928;28;20433;-82
2023/03/04 08:39:16;;;;;;;10.93;4.00;;;5.80;99.90;;;;;;5057472;28;20765;-83
2023/03/04 08:41:43;;;;;;;9.23;4.15;;;5.90;99.90;;;;;;5058723;28;20387;-83
2023/03/04 08:44:11;;;;;;;10.63;4.57;;;5.90;99.90;;;;;;5058716;28;20470;-83
2023/03/04 08:46:39;;;;;;;9.63;3.60;;;6.00;99.90;;;;;;5035265;28;20732;-83
2023/03/04 08:49:05;;;;;;;10.15;3.75;;;6.10;99.90;;;;;;5030824;28;20383;-84
2023/03/04 08:51:31;;;;;;;9.75;3.55;;;6.00;99.90;;;;;;5029535;28;20378;-83
2023/03/04 08:53:57;;;;;;;10.60;3.60;;;6.00;99.90;;;;;;5030864;28;20444;-83
2023/03/04 08:56:23;;;;;;;8.73;3.37;;;6.20;99.90;;;;;;5029981;28;20400;-83
2023/03/04 08:58:48;;;;;;;9.90;3.30;;;6.20;99.90;;;;;;5033492;28;20381;-83
2023/03/04 09:01:15;;;;;;;13.00;3.22;;;6.20;99.90;;;;;;5035910;28;20381;-85
2023/03/04 09:03:41;;;;;;;11.43;3.50;;;6.10;99.90;;;;;;5035478;28;20385;-84
2023/03/04 09:06:08;;;;;;;10.10;3.05;;;6.00;99.90;;;;;;5047000;28;20514;-84
2023/03/04 09:08:35;;;;;;;9.10;3.13;;;6.10;99.90;;;;;;5052130;28;20379;-84
2023/03/04 09:11:01;;;;;;;10.40;3.05;;;6.10;99.90;;;;;;5042220;28;20402;-79
2023/03/04 09:13:28;;;;;;;9.55;3.40;;;6.20;99.90;;;;;;5037844;28;20745;-84
2023/03/04 09:15:54;;;;;;;9.82;2.95;;;6.20;99.90;;;;;;5043661;28;20518;-83
2023/03/04 09:18:21;;;;;;;8.38;2.75;;;6.20;99.90;;;;;;5050128;28;20952;-84
2023/03/04 09:20:47;;;;;;;10.20;2.80;;;6.30;99.90;;;;;;5048014;28;20371;-82
2023/03/04 09:23:14;;;;;;;14.18;3.55;;;6.20;99.90;;;;;;5029259;28;20396;-83
2023/03/04 09:25:45;;;;;;;10.10;3.50;;;6.30;99.90;;;;;;5030755;28;20377;-84
2023/03/04 09:28:12;;;;;;;11.02;3.65;;;6.20;99.90;;;;;;5046023;28;20388;-84
2023/03/04 09:30:38;;;;;;;12.13;3.80;;;6.30;99.90;;;;;;5050920;28;20369;-82
2023/03/04 09:33:04;;;;;;;10.57;3.88;;;6.40;99.90;;;;;;5048978;28;20540;-84
2023/03/04 09:35:29;;;;;;;11.13;4.35;;;6.60;99.90;;;;;;5042672;28;20551;-86
2023/03/04 09:37:57;;;;;;;10.82;3.65;;;6.60;99.90;;;;;;5048089;28;20403;-84
2023/03/04 09:40:30;;;;;;;10.25;3.15;;;6.70;99.90;;;;;;5050307;28;20387;-84
2023/03/04 09:43:02;;;;;;;14.95;3.47;;;6.70;99.90;;;;;;5050703;28;20414;-83
2023/03/04 09:45:38;;;;;;;11.18;3.22;;;6.50;99.90;;;;;;5058364;28;20402;-82
2023/03/04 09:48:05;;;;;;;12.82;3.80;;;6.60;99.90;;;;;;5049658;28;20376;-83
2023/03/04 09:50:35;;;;;;;13.80;3.95;;;6.60;99.90;;;;;;5050459;28;20537;-83
2023/03/04 09:53:05;;;;;;;13.68;4.13;;;6.60;99.90;;;;;;5048966;28;20378;-84
2023/03/04 09:55:36;;;;;;;12.95;3.38;;;6.70;99.90;;;;;;5050092;28;20376;-86
2023/03/04 09:58:30;;;;;;;12.82;4.07;;;6.70;99.90;;;;;;5050253;28;20400;-85
2023/03/04 10:01:02;;;;;;;16.58;3.95;;;6.80;99.90;;;;;;5050257;28;20379;-83
2023/03/04 10:03:57;;;;;;;13.93;3.90;;;6.70;99.90;;;;;;5049765;28;20375;-82
2023/03/04 10:06:23;;;;;;;15.65;4.20;;;6.80;99.90;;;;;;5048859;28;20376;-83
2023/03/04 10:09:13;;;;;;;15.40;5.17;;;6.80;99.90;;;;;;5052457;28;20429;-83
2023/03/04 10:12:03;;;;;;;15.23;4.37;;;6.80;99.90;;;;;;5049250;28;20376;-83
2023/03/04 10:14:42;;;;;;;14.10;4.80;;;6.90;99.90;;;;;;5049014;28;20884;-85
2023/03/04 10:17:29;;;;;;;9.77;3.77;;;7.00;99.90;;;;;;5040769;28;20482;-83
2023/03/04 10:20:02;;;;;;;13.38;3.97;;;7.10;99.90;;;;;;5040418;28;21198;-82
2023/03/04 10:23:07;;;;;;;14.68;4.10;;;7.10;99.90;;;;;;5048555;28;20375;-82
2023/03/04 10:25:43;;;;;;;17.88;5.05;;;7.20;99.90;;;;;;5008203;28;20399;-83
2023/03/04 10:28:16;;;;;;;19.67;4.85;;;7.10;99.90;;;;;;5034290;28;20409;-83
2023/03/04 10:31:21;;;;;;;19.15;5.05;;;7.20;99.90;;;;;;5042307;28;20403;-83
2023/03/04 10:33:48;;;;;;;12.53;4.63;;;6.90;99.90;;;;;;5039005;28;20522;-83
2023/03/04 10:36:35;;;;;;;14.63;4.90;;;7.00;99.90;;;;;;5028308;28;20394;-82
2023/03/04 10:39:11;;;;;;;16.23;4.70;;;7.00;99.90;;;;;;5043564;28;20431;-82
2023/03/04 10:41:42;;;;;;;16.42;5.05;;;7.20;99.90;;;;;;5048639;28;20506;-82
2023/03/04 10:44:08;;;;;;;17.63;5.75;;;7.20;99.90;;;;;;5044281;28;20393;-83
2023/03/04 10:46:39;;;;;;;16.90;5.33;;;7.10;99.90;;;;;;5027166;28;20443;-84
2023/03/04 10:49:05;;;;;;;14.35;5.00;;;7.10;99.90;;;;;;5027122;28;20405;-83
2023/03/04 10:51:31;;;;;;;20.40;5.70;;;7.20;99.90;;;;;;5047710;28;20411;-83
2023/03/04 10:54:08;;;;;;;17.67;5.67;;;7.20;99.90;;;;;;5047060;28;20442;-82
2023/03/04 10:56:37;;;;;;;19.23;5.63;;;7.10;99.90;;;;;;5044108;28;20380;-82
2023/03/04 10:59:41;;;;;;;16.38;5.10;;;7.10;99.90;;;;;;5042707;28;20420;-82
2023/03/04 11:02:31;;;;;;;17.80;5.57;;;7.10;99.90;;;;;;5045815;28;20419;-82
2023/03/04 11:05:14;;;;;;;18.23;5.60;;;7.10;99.90;;;;;;5039992;28;20380;-82
2023/03/04 11:07:52;;;;;;;18.70;5.45;;;7.10;99.90;;;;;;5044075;28;20479;-84
2023/03/04 11:10:39;;;;;;;21.15;6.05;;;7.00;99.90;;;;;;5045376;28;20407;-83
2023/03/04 11:13:11;;;;;;;20.13;5.75;;;7.00;99.90;;;;;;5046159;28;20585;-82
2023/03/04 11:15:57;;;;;;;20.97;5.80;;;7.10;99.90;;;;;;5045818;28;20870;-83
2023/03/04 11:18:29;;;;;;;19.70;5.60;;;7.20;99.90;;;;;;5043358;28;20427;-83
2023/03/04 11:20:56;;;;;;;19.90;6.15;;;7.00;99.90;;;;;;5046299;28;20714;-82
2023/03/04 11:23:52;;;;;;;18.83;5.95;;;6.90;99.90;;;;;;5042133;28;20789;-85
2023/03/04 11:26:25;;;;;;;18.00;5.73;;;6.90;99.90;;;;;;5048386;28;20411;-85
2023/03/04 11:29:04;;;;;;;19.63;5.80;;;7.10;99.90;;;;;;5047233;28;20376;-83
2023/03/04 11:31:49;;;;;;;24.07;6.10;;;7.00;99.90;;;;;;5046461;28;20481;-85
2023/03/04 11:34:43;;;;;;;21.90;6.03;;;6.90;99.90;;;;;;5046249;28;20371;-85
2023/03/04 11:37:23;;;;;;;20.45;5.85;;;7.00;99.90;;;;;;5044675;28;20758;-84
2023/03/04 11:40:03;;;;;;;25.77;6.20;;;7.10;99.90;;;;;;5045163;28;20419;-84
2023/03/04 11:42:54;;;;;;;16.48;5.50;;;7.10;99.90;;;;;;5042991;28;20418;-84
2023/03/04 11:45:40;;;;;;;20.98;5.68;;;7.00;99.90;;;;;;5047441;28;20866;-84
2023/03/04 11:48:47;;;;;;;17.80;6.28;;;7.00;99.90;;;;;;5043795;28;20383;-83
2023/03/04 11:51:51;;;;;;;17.08;5.10;;;7.00;99.90;;;;;;5037838;28;20391;-84
2023/03/04 11:54:20;;;;;;;18.95;5.00;;;6.90;99.90;;;;;;5045501;28;20460;-84
2023/03/04 11:57:42;;;;;;;20.07;5.67;;;7.00;99.90;;;;;;5047657;28;20888;-85
2023/03/04 12:00:41;;;;;;;21.45;5.20;;;6.90;99.90;;;;;;4968604;28;20413;-83
2023/03/04 12:03:41;;;;;;;16.53;5.00;;;7.10;99.90;;;;;;5046055;28;20414;-84
2023/03/04 12:06:45;;;;;;;21.08;5.47;;;7.10;99.90;;;;;;5047848;28;20430;-83
2023/03/04 12:09:39;;;;;;;14.00;4.60;;;6.90;99.90;;;;;;4973042;28;20429;-82
2023/03/04 12:12:36;;;;;;;18.00;5.28;;;6.90;99.90;;;;;;5051726;28;20400;-85
2023/03/04 12:15:22;;;;;;;18.63;5.27;;;6.90;99.90;;;;;;5045296;28;20495;-86
2023/03/04 12:18:37;;;;;;;20.13;5.13;;;7.00;99.90;;;;;;5045972;28;20435;-86
2023/03/04 12:21:11;;;;;;;14.73;4.40;;;6.80;99.90;;;;;;4951897;28;20392;-85
2023/03/04 12:24:16;;;;;;;17.60;5.57;;;7.00;99.90;;;;;;4950369;28;20417;-86
2023/03/04 12:26:54;;;;;;;13.40;4.85;;;7.20;99.90;;;;;;5037015;28;20415;-86
2023/03/04 12:29:37;;;;;;;17.33;4.55;;;7.30;99.90;;;;;;5051901;28;20403;-86
2023/03/04 12:32:14;;;;;;;15.52;4.70;;;7.30;99.90;;;;;;5046694;28;20407;-86
2023/03/04 12:35:12;;;;;;;15.70;4.75;;;7.10;99.90;;;;;;5049647;28;20398;-86
2023/03/04 12:37:50;;;;;;;15.15;4.88;;;7.10;99.90;;;;;;5044658;28;20404;-88
2023/03/04 12:40:35;;;;;;;13.82;5.07;;;6.90;99.90;;;;;;5052490;28;20384;-86
2023/03/04 12:43:18;;;;;;;16.25;4.78;;;6.90;99.90;;;;;;5044857;28;20415;-87
2023/03/04 12:46:02;;;;;;;14.35;4.57;;;6.80;99.90;;;;;;5051097;28;20522;-86
2023/03/04 12:48:45;;;;;;;15.03;4.57;;;6.80;99.90;;;;;;5054591;28;20392;-84
2023/03/04 12:51:29;;;;;;;18.27;4.97;;;6.80;99.90;;;;;;5050510;28;20430;-86
2023/03/04 12:54:03;;;;;;;15.67;4.30;;;6.90;99.90;;;;;;5049181;28;20404;-85
2023/03/04 12:56:52;;;;;;;16.30;4.72;;;6.90;99.90;;;;;;5050623;28;20384;-85
2023/03/04 12:59:22;;;;;;;14.57;4.67;;;6.90;99.90;;;;;;5046657;28;20399;-86
2023/03/04 13:02:26;;;;;;;13.83;4.70;;;6.90;99.90;;;;;;5051136;28;20804;-85